Time;durP1;ratioP1;P1;durP2;ratioP2;P2;SDS_P1;SDS_P2;PMS_P1;PMS_P2;Temp;Humidity;BMP_temperature;BMP_pressure;BME280_temperature;BME280_humidity;BME280_pressure;Samples;Min_cycle;Max_cycle;Signal;HPM_P1;HPM_P2
2022/10/24 00:00:03;;;;;;;6.77;4.23;;;;;;;12.43;100.00;104592.53;5073673;28;20181;-61
2022/10/24 00:02:30;;;;;;;4.60;3.97;;;;;;;12.67;100.00;109267.78;5073672;28;20209;-60
2022/10/24 00:04:57;;;;;;;7.20;3.90;;;;;;;12.85;100.00;145343.03;5073582;28;20195;-61
2022/10/24 00:07:24;;;;;;;4.03;3.70;;;;;;;12.65;100.00;149218.31;5073944;28;20670;-61
2022/10/24 00:09:51;;;;;;;4.60;4.30;;;;;;;12.65;100.00;149219.59;5073757;28;20185;-62
2022/10/24 00:12:20;;;;;;;4.97;3.53;;;;;;;12.57;100.00;149199.31;5073476;28;20195;-61
2022/10/24 00:14:47;;;;;;;3.60;3.40;;;;;;;12.74;100.00;149242.38;5073491;28;20197;-61
2022/10/24 00:17:14;;;;;;;4.30;4.00;;;;;;;12.55;100.00;149194.28;5073372;28;20193;-61
2022/10/24 00:19:41;;;;;;;5.00;4.53;;;;;;;12.64;100.00;148227.06;5073356;28;20184;-61
2022/10/24 00:22:08;;;;;;;4.53;4.13;;;;;;;12.71;100.00;149166.78;5073479;28;20189;-60
2022/10/24 00:24:35;;;;;;;4.30;3.90;;;;;;;12.42;100.00;149161.38;5073259;28;20185;-60
2022/10/24 00:27:02;;;;;;;4.20;3.80;;;;;;;12.46;100.00;149170.22;5072136;28;20238;-61
2022/10/24 00:29:30;;;;;;;4.63;4.17;;;;;;;12.43;100.00;149162.63;5073209;28;20239;-60
2022/10/24 00:31:57;;;;;;;4.10;3.80;;;;;;;12.36;100.00;149147.44;5073465;28;20268;-60
2022/10/24 00:34:24;;;;;;;5.03;4.00;;;;;;;12.41;100.00;147969.16;5073403;28;20318;-62
2022/10/24 00:36:51;;;;;;;5.47;3.67;;;;;;;12.42;100.00;140210.59;5073557;28;20197;-61
2022/10/24 00:39:18;;;;;;;4.13;3.70;;;;;;;12.08;100.00;131446.88;5073289;28;20563;-61
2022/10/24 00:41:44;;;;;;;4.40;4.07;;;;;;;12.03;100.00;127387.97;5073234;28;20276;-60
2022/10/24 00:44:13;;;;;;;5.17;4.23;;;;;;;11.81;100.00;122360.59;5072817;28;20208;-62
2022/10/24 00:46:46;;;;;;;4.37;4.13;;;;;;;11.89;100.00;118063.66;5072772;28;20189;-61
2022/10/24 00:49:16;;;;;;;3.80;3.50;;;;;;;11.91;100.00;120057.50;5072813;28;20207;-61
2022/10/24 00:51:45;;;;;;;4.03;3.80;;;;;;;11.59;100.00;121651.31;5072177;28;20185;-61
2022/10/24 00:54:14;;;;;;;4.37;4.07;;;;;;;11.74;100.00;106783.41;5072610;28;20196;-61
2022/10/24 00:56:45;;;;;;;3.93;3.73;;;;;;;11.70;100.00;104133.31;5072569;28;20189;-60
2022/10/24 00:59:16;;;;;;;6.93;3.93;;;;;;;11.76;100.00;111746.50;5072424;28;20185;-61
2022/10/24 01:01:47;;;;;;;4.13;3.83;;;;;;;11.64;100.00;105774.34;5072654;28;20567;-61
2022/10/24 01:04:14;;;;;;;9.23;4.20;;;;;;;11.39;100.00;105070.09;5072720;28;20746;-60
2022/10/24 01:06:47;;;;;;;6.87;5.00;;;;;;;11.22;100.00;86939.19;5072646;28;20567;-61
2022/10/24 01:09:24;;;;;;;4.53;4.33;;;;;;;11.08;100.00;77088.63;5072704;28;20181;-61
2022/10/24 01:12:02;;;;;;;10.57;4.73;;;;;;;11.09;100.00;63374.22;5072640;28;20185;-61
2022/10/24 01:14:39;;;;;;;5.00;4.67;;;;;;;11.17;100.00;58496.66;5072695;28;20611;-61
2022/10/24 01:17:16;;;;;;;9.13;4.30;;;;;;;11.24;100.00;56551.69;5072163;28;20194;-62
2022/10/24 01:20:18;;;;;;;5.60;4.90;;;;;;;11.14;100.00;57517.84;5072291;28;20185;-60
2022/10/24 01:23:00;;;;;;;9.30;6.67;;;;;;;11.34;100.00;56561.50;5072130;28;20204;-61
2022/10/24 01:25:41;;;;;;;8.97;6.43;;;;;;;11.45;100.00;56572.28;5072193;28;20283;-61
2022/10/24 01:28:13;;;;;;;12.47;9.07;;;;;;;11.58;100.00;58863.94;5072195;28;20195;-61
2022/10/24 01:30:48;;;;;;;14.87;9.93;;;;;;;11.64;100.00;61802.69;5087048;28;20232;-60
2022/10/24 01:33:22;;;;;;;20.67;9.27;;;;;;;11.80;100.00;63777.16;5092671;28;20561;-61
2022/10/24 01:35:54;;;;;;;21.23;12.87;;;;;;;11.68;100.00;65722.59;5092799;28;20570;-62
2022/10/24 01:38:28;;;;;;;20.90;12.87;;;;;;;11.97;100.00;66734.84;5092835;28;20642;-61
2022/10/24 01:40:59;;;;;;;22.37;13.83;;;;;;;12.19;100.00;67086.97;5092282;28;20184;-61
2022/10/24 01:43:28;;;;;;;20.37;13.97;;;;;;;12.32;100.00;70699.97;5092459;28;20571;-61
2022/10/24 01:46:01;;;;;;;18.33;12.77;;;;;;;12.48;100.00;79567.81;5092167;28;20192;-61
2022/10/24 01:48:31;;;;;;;16.07;12.47;;;;;;;12.43;100.00;86130.47;5092396;28;20642;-61
2022/10/24 01:51:02;;;;;;;16.03;13.07;;;;;;;12.64;100.00;93405.59;5092217;28;20181;-61
2022/10/24 01:53:30;;;;;;;15.40;12.67;;;;;;;12.72;100.00;102659.63;5093178;28;20180;-60
2022/10/24 01:55:58;;;;;;;15.73;12.97;;;;;;;12.83;100.00;106317.03;5093335;28;20180;-61
2022/10/24 01:58:26;;;;;;;15.90;12.53;;;;;;;12.87;100.00;111954.81;5092617;28;20511;-61
2022/10/24 02:00:58;;;;;;;18.00;12.37;;;;;;;12.85;100.00;121909.03;5091889;28;20199;-61
2022/10/24 02:03:33;;;;;;;16.73;12.17;;;;;;;12.78;100.00;122226.88;5090876;28;20294;-61
2022/10/24 02:06:04;;;;;;;16.13;11.60;;;;;;;12.71;100.00;129966.38;5091790;28;20188;-62
2022/10/24 02:08:34;;;;;;;21.27;11.27;;;;;;;12.80;100.00;128552.47;5091799;28;20198;-60
2022/10/24 02:11:04;;;;;;;16.70;11.07;;;;;;;12.81;100.00;126224.34;5091610;28;20184;-61
2022/10/24 02:13:36;;;;;;;11.83;10.73;;;;;;;12.85;100.00;122241.44;5092061;28;20176;-60
2022/10/24 02:16:04;;;;;;;17.00;10.83;;;;;;;12.84;100.00;125232.50;5092019;28;20555;-60
2022/10/24 02:18:33;;;;;;;11.33;10.43;;;;;;;12.81;100.00;128221.66;5091680;28;20188;-61
2022/10/24 02:21:08;;;;;;;12.27;9.80;;;;;;;12.90;100.00;129240.44;5091637;28;20180;-62
2022/10/24 02:23:42;;;;;;;13.37;10.77;;;;;;;12.67;100.00;144339.66;5091679;28;20280;-61
2022/10/24 02:26:17;;;;;;;17.50;9.77;;;;;;;12.62;100.00;144533.81;5091870;28;20634;-62
2022/10/24 02:28:47;;;;;;;12.97;9.67;;;;;;;12.44;100.00;140695.38;5091603;28;20188;-62
2022/10/24 02:31:20;;;;;;;11.17;10.27;;;;;;;12.49;100.00;128484.78;5091375;28;20238;-61
2022/10/24 02:33:49;;;;;;;12.33;11.13;;;;;;;12.52;100.00;121509.50;5091756;28;20601;-61
2022/10/24 02:36:21;;;;;;;16.43;10.60;;;;;;;12.65;100.00;122199.91;5091854;28;20198;-60
2022/10/24 02:38:52;;;;;;;19.20;9.90;;;;;;;12.38;100.00;125800.75;5091359;28;20191;-61
2022/10/24 02:41:24;;;;;;;18.63;10.00;;;;;;;12.32;100.00;123462.31;5091339;28;20188;-60
2022/10/24 02:43:53;;;;;;;10.43;9.40;;;;;;;12.20;100.00;114809.50;5091475;28;20215;-61
2022/10/24 02:46:21;;;;;;;16.90;10.20;;;;;;;11.94;100.00;99555.59;5091311;28;20185;-61
2022/10/24 02:48:56;;;;;;;15.37;9.83;;;;;;;12.18;100.00;97946.16;5091378;28;20337;-60
2022/10/24 02:51:25;;;;;;;12.63;10.57;;;;;;;12.14;100.00;93985.47;5091242;28;20188;-60
2022/10/24 02:53:52;;;;;;;11.20;9.70;;;;;;;12.02;100.00;91990.09;5091620;28;20251;-62
2022/10/24 02:56:19;;;;;;;13.67;10.00;;;;;;;12.02;100.00;94953.50;5091568;28;20192;-61
2022/10/24 02:58:47;;;;;;;17.60;8.93;;;;;;;11.79;100.00;92941.94;5091230;28;20195;-61
2022/10/24 03:01:14;;;;;;;13.47;9.43;;;;;;;11.69;100.00;86023.03;5091178;28;20188;-60
2022/10/24 03:03:43;;;;;;;14.80;9.43;;;;;;;11.71;100.00;79137.22;5091008;28;20257;-62
2022/10/24 03:06:12;;;;;;;27.07;17.20;;;;;;;11.73;100.00;79467.72;5091120;28;20184;-61
2022/10/24 03:08:39;;;;;;;27.90;15.20;;;;;;;11.93;100.00;76872.13;5091140;28;20364;-61
2022/10/24 03:11:06;;;;;;;25.53;13.73;;;;;;;11.92;100.00;80804.72;5091263;28;20210;-61
2022/10/24 03:13:33;;;;;;;18.97;13.67;;;;;;;12.05;100.00;83119.34;5091466;28;20180;-61
2022/10/24 03:16:00;;;;;;;22.00;17.77;;;;;;;11.98;100.00;86394.28;5093378;28;20180;-61
2022/10/24 03:18:26;;;;;;;22.93;16.80;;;;;;;12.09;100.00;90356.44;5095213;28;20188;-62
2022/10/24 03:20:53;;;;;;;27.70;17.80;;;;;;;12.08;100.00;91671.16;5094782;28;20184;-60
2022/10/24 03:23:22;;;;;;;15.30;12.90;;;;;;;11.95;100.00;96259.91;5094903;28;20211;-60
2022/10/24 03:25:48;;;;;;;16.90;12.20;;;;;;;11.93;100.00;103843.91;5094719;28;20631;-61
2022/10/24 03:28:15;;;;;;;17.83;10.63;;;;;;;11.22;100.00;99105.72;5094903;28;20188;-61
2022/10/24 03:30:42;;;;;;;20.07;11.47;;;;;;;11.37;100.00;87289.84;5094556;28;20231;-62
2022/10/24 03:33:09;;;;;;;16.70;10.77;;;;;;;11.34;100.00;90570.91;5094440;28;20197;-61
2022/10/24 03:35:37;;;;;;;12.33;9.77;;;;;;;11.10;100.00;82330.19;5094730;28;20539;-60
2022/10/24 03:38:04;;;;;;;19.67;10.70;;;;;;;10.94;100.00;68902.00;5094696;28;20627;-61
2022/10/24 03:40:32;;;;;;;16.80;11.37;;;;;;;11.04;100.00;64345.97;5094697;28;20627;-61
2022/10/24 03:42:59;;;;;;;21.30;9.90;;;;;;;10.90;100.00;61724.78;5094587;28;20191;-61
2022/10/24 03:45:26;;;;;;;10.13;9.23;;;;;;;10.89;100.00;55867.13;5094309;28;20188;-61
2022/10/24 03:47:53;;;;;;;21.00;9.73;;;;;;;11.02;100.00;54253.88;5094562;28;20625;-61
2022/10/24 03:50:20;;;;;;;18.73;9.63;;;;;;;10.88;100.00;53591.34;5094416;28;20184;-61
2022/10/24 03:52:47;;;;;;;14.67;8.77;;;;;;;11.03;100.00;52955.06;5094486;28;20558;-61
2022/10/24 03:55:14;;;;;;;11.53;8.50;;;;;;;11.02;100.00;51330.16;5094406;28;20631;-60
2022/10/24 03:57:42;;;;;;;12.10;8.87;;;;;;;11.12;100.00;51339.53;5094101;28;20180;-61
2022/10/24 04:00:10;;;;;;;18.20;8.90;;;;;;;10.89;100.00;50994.34;5094277;28;20194;-61
2022/10/24 04:02:37;;;;;;;13.70;8.77;;;;;;;10.87;100.00;53266.03;5093941;28;20195;-61
2022/10/24 04:05:05;;;;;;;16.00;8.37;;;;;;;10.97;100.00;53925.13;5093800;28;20204;-60
2022/10/24 04:07:31;;;;;;;14.90;8.47;;;;;;;10.91;100.00;52619.63;5094084;28;20184;-61
2022/10/24 04:09:58;;;;;;;16.80;8.80;;;;;;;11.04;100.00;52631.09;5094144;28;20551;-61
2022/10/24 04:12:25;;;;;;;16.23;8.60;;;;;;;11.12;100.00;53288.75;5094108;28;20184;-61
2022/10/24 04:14:54;;;;;;;11.30;9.07;;;;;;;11.12;100.00;54913.94;5093933;28;20520;-61
2022/10/24 04:17:21;;;;;;;19.97;10.40;;;;;;;11.15;100.00;53616.06;5093733;28;20199;-60
2022/10/24 04:19:48;;;;;;;24.80;8.87;;;;;;;11.14;100.00;48743.63;5093698;28;20192;-61
2022/10/24 04:22:15;;;;;;;25.27;9.60;;;;;;;11.15;100.00;40317.09;5093889;28;20540;-61
2022/10/24 04:24:41;;;;;;;54.53;13.43;;;;;;;11.18;100.00;36759.94;5075518;28;20204;-60
2022/10/24 04:27:08;;;;;;;29.60;11.23;;;;;;;11.25;100.00;31593.53;5092481;28;20191;-61
2022/10/24 04:29:36;;;;;;;39.60;11.83;;;;;;;11.35;100.00;33214.88;5093671;28;20257;-61
2022/10/24 04:32:04;;;;;;;31.90;12.20;;;;;;;11.06;100.00;36105.50;5093747;28;20586;-61
2022/10/24 04:34:34;;;;;;;37.77;12.87;;;;;;;11.32;100.00;44541.84;5093578;28;20184;-62
2022/10/24 04:37:01;;;;;;;53.17;14.13;;;;;;;11.35;100.00;47788.16;5093866;28;20647;-61
2022/10/24 04:39:29;;;;;;;38.37;12.83;;;;;;;11.00;100.00;45164.97;5093674;28;20194;-61
2022/10/24 04:41:55;;;;;;;52.50;14.83;;;;;;;10.90;100.00;43213.25;5093282;28;20562;-62
2022/10/24 04:44:22;;;;;;;50.90;18.23;;;;;;;11.31;100.00;42271.91;5093457;28;20681;-61
2022/10/24 04:46:50;;;;;;;35.93;15.40;;;;;;;11.38;100.00;45519.44;5093567;28;20188;-61
2022/10/24 04:49:18;;;;;;;45.00;14.77;;;;;;;11.34;100.00;49735.19;5093123;28;20188;-61
2022/10/24 04:51:45;;;;;;;63.33;25.60;;;;;;;11.39;100.00;51038.38;5093032;28;20191;-61
2022/10/24 04:54:12;;;;;;;44.77;18.03;;;;;;;11.30;100.00;52654.94;5093044;28;20565;-61
2022/10/24 04:56:39;;;;;;;51.83;21.00;;;;;;;11.34;100.00;50709.06;5093343;28;20188;-61
2022/10/24 04:59:06;;;;;;;33.27;13.53;;;;;;;11.27;100.00;47781.47;5093422;28;20214;-61
2022/10/24 05:01:33;;;;;;;50.90;14.53;;;;;;;11.36;100.00;47789.00;5092915;28;20188;-61
2022/10/24 05:04:00;;;;;;;39.47;13.03;;;;;;;11.48;100.00;48447.50;5092897;28;20204;-60
2022/10/24 05:06:28;;;;;;;27.23;12.33;;;;;;;11.57;100.00;49104.63;5092719;28;20211;-61
2022/10/24 05:08:55;;;;;;;34.30;13.07;;;;;;;11.69;100.00;51064.63;5092684;28;20184;-62
2022/10/24 05:11:22;;;;;;;26.60;11.50;;;;;;;11.92;100.00;50434.84;5092722;28;20188;-60
2022/10/24 05:13:50;;;;;;;14.53;9.07;;;;;;;12.09;100.00;54679.50;5092623;28;20177;-61
2022/10/24 05:16:17;;;;;;;46.43;13.13;;;;;;;12.34;100.00;62203.94;5092407;28;20195;-61
2022/10/24 05:18:44;;;;;;;38.23;9.90;;;;;;;12.65;100.00;75653.88;5074822;28;20630;-61
2022/10/24 05:21:11;;;;;;;29.03;9.70;;;;;;;12.95;100.00;98403.28;5092822;28;20241;-62
2022/10/24 05:23:39;;;;;;;21.10;10.30;;;;;;;13.38;100.00;120022.16;5092439;28;20181;-61
2022/10/24 05:26:06;;;;;;;36.57;12.73;;;;;;;13.95;100.00;149543.94;5092802;28;20190;-61
2022/10/24 05:28:34;;;;;;;56.80;16.37;;;;;;;14.30;100.00;149632.63;5092408;28;20188;-61
2022/10/24 05:31:01;;;;;;;63.90;17.80;;;;;;;14.83;100.00;149764.56;5092090;28;20246;-62
2022/10/24 05:33:28;;;;;;;55.60;17.33;;;;;;;14.91;100.00;149786.13;5091704;28;20287;-62
2022/10/24 05:35:55;;;;;;;47.17;17.37;;;;;;;15.05;100.00;149821.66;5092393;28;20562;-60
2022/10/24 05:38:22;;;;;;;64.43;20.47;;;;;;;15.47;100.00;149925.69;5092022;28;20188;-61
2022/10/24 05:40:51;;;;;;;58.23;21.43;;;;;;;15.84;100.00;150018.38;5074730;28;20549;-63
2022/10/24 05:43:18;;;;;;;77.57;26.33;;;;;;;16.39;100.00;150158.00;5092294;28;20191;-64
2022/10/24 05:45:48;;;;;;;90.03;31.53;;;;;;;16.52;100.00;150189.75;5092263;28;20204;-62
2022/10/24 05:48:15;;;;;;;174.93;116.10;;;;;;;16.88;100.00;150280.00;5092425;28;20271;-61
2022/10/24 05:50:42;;;;;;;51.63;31.83;;;;;;;17.13;100.00;150343.50;5091997;28;20184;-59
2022/10/24 05:53:09;;;;;;;57.60;23.23;;;;;;;17.18;100.00;150356.22;5091920;28;20191;-62
2022/10/24 05:55:36;;;;;;;52.53;17.33;;;;;;;17.29;100.00;150384.16;5092280;28;20646;-62
2022/10/24 05:58:05;;;;;;;39.00;18.07;;;;;;;17.61;100.00;150463.00;5092050;28;20206;-62
2022/10/24 06:00:33;;;;;;;50.63;17.03;;;;;;;17.38;100.00;150404.50;5091459;28;20200;-62
2022/10/24 06:03:00;;;;;;;58.07;18.40;;;;;;;17.45;100.00;150422.25;5091770;28;20184;-61
2022/10/24 06:05:27;;;;;;;73.33;18.73;;;;;;;17.59;100.00;150457.91;5091719;28;20641;-62
2022/10/24 06:07:54;;;;;;;52.47;16.77;;;;;;;17.87;100.00;150529.06;5091673;28;20252;-61
2022/10/24 06:10:22;;;;;;;41.67;16.90;;;;;;;18.36;100.00;150652.41;5091798;28;20729;-63
2022/10/24 06:12:48;;;;;;;51.47;15.93;;;;;;;18.88;100.00;150782.19;5091902;28;20184;-62
2022/10/24 06:15:17;;;;;;;74.80;17.80;;;;;;;19.10;100.00;150839.41;5091444;28;20286;-63
2022/10/24 06:17:44;;;;;;;54.40;16.17;;;;;;;19.13;100.00;150845.81;5091337;28;20190;-61
2022/10/24 06:20:11;;;;;;;40.97;16.07;;;;;;;19.73;100.00;150996.03;5091770;28;20191;-63
2022/10/24 06:22:38;;;;;;;66.80;15.85;;;;;;;20.23;100.00;151123.31;5091921;28;20563;-63
2022/10/24 06:25:06;;;;;;;56.95;14.55;;;;;;;20.59;100.00;151212.47;5091375;28;20204;-61
2022/10/24 06:27:33;;;;;;;27.02;11.68;;;;;;;21.07;100.00;151333.50;5091471;28;20271;-61
2022/10/24 06:30:00;;;;;;;42.80;12.20;;;;;;;21.52;100.00;151446.94;5091575;28;20629;-60
2022/10/24 06:32:28;;;;;;;37.10;10.63;;;;;;;21.79;100.00;151515.78;5091972;28;20199;-61
2022/10/24 06:34:55;;;;;;;33.53;10.35;;;;;;;22.39;100.00;151666.28;5091513;28;20184;-62
2022/10/24 06:37:22;;;;;;;30.98;10.68;;;;;;;22.63;100.00;151727.50;5091094;28;20203;-64
2022/10/24 06:39:49;;;;;;;36.25;10.95;;;;;;;22.53;100.00;151702.00;5092042;28;20623;-61
2022/10/24 06:42:16;;;;;;;41.63;9.88;;;;;;;22.59;100.00;151718.56;5091412;28;20191;-62
2022/10/24 06:44:43;;;;;;;39.58;10.63;;;;;;;22.98;99.78;151816.84;5091279;28;20207;-62
2022/10/24 06:47:10;;;;;;;39.20;10.05;;;;;;;23.60;96.30;151972.53;5091647;28;20210;-61
2022/10/24 06:49:39;;;;;;;34.90;10.73;;;;;;;24.13;91.09;152107.88;5091648;28;20194;-61
2022/10/24 06:52:06;;;;;;;34.38;9.82;;;;;;;24.41;87.54;152178.13;5095751;28;20627;-61
2022/10/24 06:54:34;;;;;;;31.98;10.00;;;;;;;24.73;84.97;152258.59;5095467;28;20271;-60
2022/10/24 06:57:01;;;;;;;43.78;10.32;;;;;;;25.03;81.70;152334.00;5077403;28;20284;-61
2022/10/24 06:59:32;;;;;;;40.70;11.40;;;;;;;25.48;80.44;152449.00;5090040;28;20191;-61
2022/10/24 07:02:02;;;;;;;28.33;10.18;;;;;;;25.73;77.57;152511.66;5115526;28;20626;-62
2022/10/24 07:04:29;;;;;;;48.10;10.50;;;;;;;25.65;76.65;152491.22;5115513;28;20207;-62
2022/10/24 07:06:58;;;;;;;33.47;11.02;;;;;;;25.59;77.74;152474.63;5115681;28;20183;-60
2022/10/24 07:09:25;;;;;;;49.88;11.65;;;;;;;25.97;76.42;152570.47;5095189;28;20271;-61
2022/10/24 07:11:51;;;;;;;53.00;12.02;;;;;;;26.09;75.23;152601.13;5095221;28;20194;-60
2022/10/24 07:14:18;;;;;;;25.63;10.93;;;;;;;26.74;72.88;152767.38;5095419;28;20191;-61
2022/10/24 07:16:45;;;;;;;22.13;9.70;;;;;;;26.62;72.78;152736.69;5109765;28;20266;-60
2022/10/24 07:19:12;;;;;;;21.88;9.35;;;;;;;27.06;70.76;152848.03;5113580;28;20183;-62
2022/10/24 07:21:39;;;;;;;23.17;9.73;;;;;;;26.98;71.64;152827.56;5097319;28;20528;-61
2022/10/24 07:24:12;;;;;;;18.77;9.93;;;;;;;27.78;67.04;153029.75;5095188;28;20615;-62
2022/10/24 07:26:39;;;;;;;29.60;10.07;;;;;;;27.23;68.66;152890.25;5094685;28;20279;-62
2022/10/24 07:29:06;;;;;;;22.00;10.02;;;;;;;27.49;67.78;152955.53;5094310;28;20199;-61
2022/10/24 07:31:34;;;;;;;25.10;10.52;;;;;;;27.97;66.42;153077.06;5094415;28;20279;-61
2022/10/24 07:34:03;;;;;;;24.27;10.02;;;;;;;27.99;65.68;153082.22;5094832;28;20515;-61
2022/10/24 07:36:31;;;;;;;26.05;10.30;;;;;;;27.83;66.09;153042.56;5094395;28;20224;-61
2022/10/24 07:38:59;;;;;;;20.42;9.88;;;;;;;27.92;64.71;153064.31;5094110;28;20191;-62
2022/10/24 07:41:31;;;;;;;18.52;10.18;;;;;;;28.05;64.25;153097.59;5096846;28;20184;-62
2022/10/24 07:43:58;;;;;;;10.90;9.88;;;;;;;28.98;60.90;153333.25;5100262;28;20195;-62
2022/10/24 07:46:26;;;;;;;12.07;10.90;;;;;;;29.47;57.86;153458.81;5106223;28;20219;-62
2022/10/24 07:48:54;;;;;;;12.65;11.45;;;;;;;29.49;57.61;153462.69;5104652;28;20230;-61
2022/10/24 07:51:21;;;;;;;12.57;11.63;;;;;;;29.75;55.88;153529.25;5103777;28;20194;-61
2022/10/24 07:53:49;;;;;;;11.95;10.23;;;;;;;30.43;52.98;153699.78;5102412;28;20192;-62
2022/10/24 07:56:18;;;;;;;19.73;9.77;;;;;;;30.66;51.96;153758.78;5086151;28;20193;-61
2022/10/24 07:58:49;;;;;;;11.18;10.15;;;;;;;30.28;52.40;153662.59;5104306;28;20202;-61
2022/10/24 08:01:18;;;;;;;11.25;10.30;;;;;;;30.22;53.53;153648.47;5100950;28;20202;-61
2022/10/24 08:03:45;;;;;;;10.00;9.23;;;;;;;30.24;52.63;153653.63;5103153;28;20187;-61
2022/10/24 08:06:14;;;;;;;11.95;6.65;;;;;;;30.24;51.41;153652.34;5104776;28;20203;-60
2022/10/24 08:08:41;;;;;;;6.25;5.65;;;;;;;30.42;50.56;153698.50;5103971;28;20188;-61
2022/10/24 08:11:09;;;;;;;10.02;9.05;;;;;;;30.53;51.63;153726.72;5102202;28;20191;-63
2022/10/24 08:13:37;;;;;;;4.45;4.25;;;;;;;30.66;50.29;153760.06;5103828;28;20180;-60
2022/10/24 08:16:07;;;;;;;3.58;3.40;;;;;;;30.87;51.17;153812.63;5104251;28;20267;-62
2022/10/24 08:18:35;;;;;;;3.60;3.45;;;;;;;31.76;47.47;154037.16;5090976;28;20199;-61
2022/10/24 08:21:05;;;;;;;3.67;3.38;;;;;;;32.04;46.59;154109.03;5088955;28;20201;-62
2022/10/24 08:23:33;;;;;;;2.47;2.35;;;;;;;32.67;44.06;154269.50;5089755;28;20199;-62
2022/10/24 08:26:00;;;;;;;2.75;2.30;;;;;;;33.47;42.40;154472.38;5093597;28;20201;-60
2022/10/24 08:28:27;;;;;;;9.70;3.03;;;;;;;34.63;40.99;154766.63;5093405;28;20270;-61
2022/10/24 08:30:58;;;;;;;2.58;2.38;;;;;;;34.07;40.70;154623.97;5076508;28;20314;-59
2022/10/24 08:33:27;;;;;;;3.92;2.40;;;;;;;34.28;40.40;154679.28;5073230;28;20272;-61
2022/10/24 08:35:57;;;;;;;2.60;2.22;;;;;;;33.66;39.70;154519.91;5073322;28;20188;-62
2022/10/24 08:38:24;;;;;;;2.58;2.38;;;;;;;33.97;40.30;154599.56;5069224;28;20195;-63
2022/10/24 08:40:54;;;;;;;6.53;2.97;;;;;;;33.74;40.06;154541.75;5052580;28;20207;-61
2022/10/24 08:43:22;;;;;;;3.10;2.80;;;;;;;33.38;40.99;154449.25;5053403;28;20187;-60
2022/10/24 08:46:02;;;;;;;3.80;3.47;;;;;;;33.11;42.88;154379.88;5053095;28;20209;-61
2022/10/24 08:48:36;;;;;;;5.47;2.75;;;;;;;33.36;41.26;154444.09;5072302;28;20187;-60
2022/10/24 08:51:11;;;;;;;9.07;3.15;;;;;;;33.21;41.45;154405.59;5072665;28;20196;-61
2022/10/24 08:53:39;;;;;;;4.43;2.65;;;;;;;34.19;39.90;154654.84;5072745;28;20229;-61
2022/10/24 08:56:09;;;;;;;6.07;3.25;;;;;;;34.55;39.54;154746.03;5053720;28;20269;-64
2022/10/24 08:58:43;;;;;;;5.30;2.80;;;;;;;35.65;37.45;155027.66;5068821;28;20191;-61
2022/10/24 09:01:32;;;;;;;11.18;3.42;;;;;;;34.74;38.58;154796.22;5070255;28;20200;-61
2022/10/24 09:04:04;;;;;;;3.22;2.78;;;;;;;34.26;39.30;154672.81;5071423;28;20635;-60
2022/10/24 09:06:32;;;;;;;6.25;3.58;;;;;;;34.18;39.28;154652.28;5072278;28;20215;-61
2022/10/24 09:09:02;;;;;;;5.28;3.20;;;;;;;34.28;38.55;154677.97;5071958;28;20187;-61
2022/10/24 09:11:37;;;;;;;4.88;2.92;;;;;;;33.80;39.25;154557.19;5069722;28;20242;-61
2022/10/24 09:14:12;;;;;;;3.75;2.50;;;;;;;34.25;38.83;154670.25;5071182;28;20231;-62
2022/10/24 09:16:42;;;;;;;2.53;2.35;;;;;;;35.25;37.51;154924.78;5069733;28;20181;-62
2022/10/24 09:19:15;;;;;;;3.55;2.53;;;;;;;35.48;37.02;154983.88;5071750;28;20215;-62
2022/10/24 09:21:43;;;;;;;4.43;2.78;;;;;;;35.85;36.54;155077.81;5070217;28;20250;-65
2022/10/24 09:24:27;;;;;;;6.43;2.88;;;;;;;35.95;36.19;155102.22;5072042;28;20255;-61
2022/10/24 09:26:54;;;;;;;3.17;2.45;;;;;;;36.12;36.86;155147.28;5071948;28;20222;-61
2022/10/24 09:29:21;;;;;;;3.05;2.35;;;;;;;36.43;35.51;155224.44;5075985;28;20729;-60
2022/10/24 09:31:49;;;;;;;9.90;2.65;;;;;;;36.69;35.27;155291.38;5092542;28;20180;-61
2022/10/24 09:34:17;;;;;;;4.25;2.58;;;;;;;36.85;34.31;155332.53;5092636;28;20558;-61
2022/10/24 09:36:45;;;;;;;2.88;2.20;;;;;;;36.20;35.60;155166.56;5095040;28;20215;-60
2022/10/24 09:39:31;;;;;;;11.85;2.83;;;;;;;35.97;36.05;155107.38;5092287;28;20187;-60
2022/10/24 09:41:59;;;;;;;2.78;2.22;;;;;;;35.18;36.74;154908.06;5091958;28;20661;-61
2022/10/24 09:44:35;;;;;;;7.22;2.53;;;;;;;35.11;36.96;154888.72;5087472;28;20188;-60
2022/10/24 09:47:03;;;;;;;3.17;2.40;;;;;;;35.62;35.87;155019.91;5080800;28;20234;-60
2022/10/24 09:49:35;;;;;;;3.72;3.08;;;;;;;35.07;36.89;154879.75;5071696;28;20496;-59
2022/10/24 09:52:14;;;;;;;12.60;3.08;;;;;;;34.93;37.56;154843.75;5076913;28;20203;-60
2022/10/24 09:54:40;;;;;;;4.82;2.78;;;;;;;35.50;36.64;154987.75;5083609;28;20274;-59
2022/10/24 09:57:15;;;;;;;4.88;2.90;;;;;;;34.08;38.52;154626.50;5080287;28;20200;-60
2022/10/24 09:59:44;;;;;;;3.17;2.72;;;;;;;34.74;37.54;154796.22;5080464;28;20202;-60
2022/10/24 10:02:23;;;;;;;2.60;2.40;;;;;;;33.53;38.82;154487.75;5090865;28;20196;-59
2022/10/24 10:05:18;;;;;;;4.43;3.83;;;;;;;33.35;39.52;154441.56;5082369;28;20211;-60
2022/10/24 10:07:47;;;;;;;10.88;4.72;;;;;;;33.14;40.42;154387.66;5095180;28;20630;-61
2022/10/24 10:10:33;;;;;;;7.00;2.92;;;;;;;33.21;40.87;154405.59;5111245;28;20203;-60
2022/10/24 10:13:05;;;;;;;5.97;3.97;;;;;;;33.46;41.45;154469.81;5112254;28;20214;-60
2022/10/24 10:15:35;;;;;;;8.13;4.05;;;;;;;33.41;41.23;154456.97;5091538;28;20191;-59
2022/10/24 10:18:05;;;;;;;7.95;3.70;;;;;;;33.62;40.99;154510.88;5074105;28;20198;-60
2022/10/24 10:21:17;;;;;;;4.07;3.67;;;;;;;34.56;39.82;154749.91;5071508;28;20180;-62
2022/10/24 10:23:46;;;;;;;4.55;3.92;;;;;;;34.44;39.62;154719.06;5074452;28;20192;-61
2022/10/24 10:26:26;;;;;;;5.32;3.45;;;;;;;33.26;43.34;154418.47;5091594;28;20674;-60
2022/10/24 10:29:04;;;;;;;9.63;4.30;;;;;;;32.25;47.70;154161.66;5095098;28;20572;-59
2022/10/24 10:31:42;;;;;;;4.38;3.78;;;;;;;31.38;51.30;153940.91;5095829;28;20187;-61
2022/10/24 10:34:28;;;;;;;5.82;3.45;;;;;;;31.00;50.32;153846.03;5095503;28;20211;-60
2022/10/24 10:37:27;;;;;;;6.80;4.07;;;;;;;30.70;53.13;153769.03;5095653;28;20190;-61
2022/10/24 10:40:15;;;;;;;3.92;3.55;;;;;;;30.82;52.76;153799.78;5095518;28;20188;-61
2022/10/24 10:42:54;;;;;;;8.07;4.10;;;;;;;32.17;48.37;154143.69;5095185;28;20183;-61
2022/10/24 10:45:34;;;;;;;3.67;3.00;;;;;;;32.85;46.39;154314.41;5095970;28;20190;-61
2022/10/24 10:48:14;;;;;;;7.18;3.60;;;;;;;33.47;44.26;154473.69;5081078;28;20630;-61
2022/10/24 10:50:47;;;;;;;7.05;5.18;;;;;;;33.72;42.76;154536.63;5089312;28;20286;-60
2022/10/24 10:53:36;;;;;;;5.55;3.60;;;;;;;34.00;42.03;154607.25;5081661;28;20216;-62
2022/10/24 10:56:17;;;;;;;4.00;3.80;;;;;;;33.64;43.96;154516.03;5075085;28;20242;-60
2022/10/24 10:58:56;;;;;;;4.88;3.40;;;;;;;33.10;43.98;154377.34;5092830;28;20221;-60
2022/10/24 11:01:35;;;;;;;10.80;3.90;;;;;;;31.60;48.31;153997.41;5095288;28;20184;-61
2022/10/24 11:04:08;;;;;;;4.47;3.38;;;;;;;30.91;49.41;153822.88;5095086;28;20227;-63
2022/10/24 11:06:47;;;;;;;3.58;3.30;;;;;;;29.82;52.39;153545.94;5094931;28;20204;-61
2022/10/24 11:09:33;;;;;;;6.65;4.00;;;;;;;28.26;62.53;153150.13;5095608;28;20184;-61
2022/10/24 11:12:09;;;;;;;4.57;3.85;;;;;;;27.06;72.94;152846.75;5074765;28;20196;-62
2022/10/24 11:14:39;;;;;;;4.30;4.00;;;;;;;25.37;85.99;152419.63;5074913;28;20591;-62
2022/10/24 11:17:17;;;;;;;5.10;4.15;;;;;;;24.75;93.60;152262.41;5074288;28;20203;-60
2022/10/24 11:19:56;;;;;;;4.55;3.75;;;;;;;23.88;100.00;152044.03;5075038;28;20220;-61
2022/10/24 11:22:27;;;;;;;4.35;3.67;;;;;;;23.56;100.00;151962.31;5087424;28;20203;-61
2022/10/24 11:25:00;;;;;;;11.45;5.03;;;;;;;23.06;100.00;151837.25;5094843;28;20184;-61
2022/10/24 11:27:37;;;;;;;4.80;4.50;;;;;;;23.07;100.00;151839.81;5094899;28;20670;-61